sensor_id;sensor_type;location;lat;lon;timestamp;pressure;altitude;pressure_sealevel;temperature;humidity
68965;BME280;56017;48.680;8.998;2023-01-20T00:01:04;96000;;;-0.5;82.5
68965;BME280;56017;48.680;8.998;2023-01-20T00:03:42;96000;;;-0.5;82.5
68965;BME280;56017;48.680;8.998;2023-01-20T00:06:07;96000;;;-0.3;82.5
68965;BME280;56017;48.680;8.998;2023-01-20T00:08:44;96000;;;-0.1;82
68965;BME280;56017;48.680;8.998;2023-01-20T00:11:09;96000;;;0;81.5
68965;BME280;56017;48.680;8.998;2023-01-20T00:13:40;96010;;;0.1;81
68965;BME280;56017;48.680;8.998;2023-01-20T00:16:11;96010;;;0;81
68965;BME280;56017;48.680;8.998;2023-01-20T00:18:42;96010;;;-0.1;82
68965;BME280;56017;48.680;8.998;2023-01-20T00:21:19;96010;;;-0.2;82.5
68965;BME280;56017;48.680;8.998;2023-01-20T00:23:50;96010;;;-0.1;82.5
68965;BME280;56017;48.680;8.998;2023-01-20T00:26:15;96010;;;0;82.5
68965;BME280;56017;48.680;8.998;2023-01-20T00:28:52;96010;;;0;82
68965;BME280;56017;48.680;8.998;2023-01-20T00:31:18;96020;;;-0.1;82.5
68965;BME280;56017;48.680;8.998;2023-01-20T00:33:48;96020;;;0;82.5
68965;BME280;56017;48.680;8.998;2023-01-20T00:36:19;96030;;;0.1;82
68965;BME280;56017;48.680;8.998;2023-01-20T00:38:50;96020;;;0.2;82
68965;BME280;56017;48.680;8.998;2023-01-20T00:41:19;96030;;;0.2;82
68965;BME280;56017;48.680;8.998;2023-01-20T00:43:51;96030;;;0.1;82
68965;BME280;56017;48.680;8.998;2023-01-20T00:46:21;96030;;;0.1;82.5
68965;BME280;56017;48.680;8.998;2023-01-20T00:48:59;96040;;;0.2;82.5
68965;BME280;56017;48.680;8.998;2023-01-20T00:51:23;96040;;;0.2;82
68965;BME280;56017;48.680;8.998;2023-01-20T00:54:01;96040;;;0.1;82
68965;BME280;56017;48.680;8.998;2023-01-20T00:56:25;96040;;;0;82.5
68965;BME280;56017;48.680;8.998;2023-01-20T00:59:03;96050;;;0;82.5
68965;BME280;56017;48.680;8.998;2023-01-20T01:01:27;96050;;;0.1;82.5
68965;BME280;56017;48.680;8.998;2023-01-20T01:04:05;96050;;;0.1;82.5
68965;BME280;56017;48.680;8.998;2023-01-20T01:06:32;96060;;;0.2;82.5
68965;BME280;56017;48.680;8.998;2023-01-20T01:09:00;96060;;;0.2;83
68965;BME280;56017;48.680;8.998;2023-01-20T01:11:31;96060;;;0.3;83
68965;BME280;56017;48.680;8.998;2023-01-20T01:14:02;96060;;;0.4;82.5
68965;BME280;56017;48.680;8.998;2023-01-20T01:16:33;96070;;;0.5;82.5
68965;BME280;56017;48.680;8.998;2023-01-20T01:19:11;96070;;;0.6;82
68965;BME280;56017;48.680;8.998;2023-01-20T01:21:35;96070;;;0.5;82
68965;BME280;56017;48.680;8.998;2023-01-20T01:24:14;96070;;;0.4;82
68965;BME280;56017;48.680;8.998;2023-01-20T01:26:37;96070;;;0.4;82.5
68965;BME280;56017;48.680;8.998;2023-01-20T01:29:08;96080;;;0.4;82
68965;BME280;56017;48.680;8.998;2023-01-20T01:31:39;96080;;;0.3;82
68965;BME280;56017;48.680;8.998;2023-01-20T01:34:17;96080;;;0.2;82.5
68965;BME280;56017;48.680;8.998;2023-01-20T01:36:48;96080;;;0.3;82.5
68965;BME280;56017;48.680;8.998;2023-01-20T01:39:12;96090;;;0.3;82.5
68965;BME280;56017;48.680;8.998;2023-01-20T01:41:43;96090;;;0.4;82.5
68965;BME280;56017;48.680;8.998;2023-01-20T01:46:45;96090;;;0.4;81.5
68965;BME280;56017;48.680;8.998;2023-01-20T01:49:21;96100;;;0.2;81.5
68965;BME280;56017;48.680;8.998;2023-01-20T01:51:49;96090;;;0.1;81.5
68965;BME280;56017;48.680;8.998;2023-01-20T01:54:26;96100;;;0;82
68965;BME280;56017;48.680;8.998;2023-01-20T01:56:49;96100;;;-0.1;82
68965;BME280;56017;48.680;8.998;2023-01-20T01:59:20;96090;;;0;82.5
68965;BME280;56017;48.680;8.998;2023-01-20T02:01:51;96090;;;0;81.5
68965;BME280;56017;48.680;8.998;2023-01-20T02:04:24;96090;;;0;81.5
68965;BME280;56017;48.680;8.998;2023-01-20T02:06:53;96090;;;0;81.5
68965;BME280;56017;48.680;8.998;2023-01-20T02:09:25;96100;;;0;81.5
68965;BME280;56017;48.680;8.998;2023-01-20T02:11:56;96100;;;0;81.5
68965;BME280;56017;48.680;8.998;2023-01-20T02:14:29;96100;;;0;81.5
68965;BME280;56017;48.680;8.998;2023-01-20T02:19:48;96100;;;-0.3;82.5
68965;BME280;56017;48.680;8.998;2023-01-20T02:22:03;96110;;;-0.1;82
68965;BME280;56017;48.680;8.998;2023-01-20T02:24:37;96100;;;0;82
68965;BME280;56017;48.680;8.998;2023-01-20T02:27:03;96110;;;0;82
68965;BME280;56017;48.680;8.998;2023-01-20T02:32:10;96110;;;0.1;81
68965;BME280;56017;48.680;8.998;2023-01-20T02:34:36;96120;;;0;81.5
68965;BME280;56017;48.680;8.998;2023-01-20T02:37:13;96120;;;0;81.5
68965;BME280;56017;48.680;8.998;2023-01-20T02:39:48;96110;;;0;82
68965;BME280;56017;48.680;8.998;2023-01-20T02:42:07;96110;;;-0.1;82
68965;BME280;56017;48.680;8.998;2023-01-20T02:44:46;96110;;;-0.2;82
68965;BME280;56017;48.680;8.998;2023-01-20T02:47:11;96120;;;-0.2;82.5
68965;BME280;56017;48.680;8.998;2023-01-20T02:49:45;96120;;;-0.1;82
68965;BME280;56017;48.680;8.998;2023-01-20T02:52:12;96130;;;0;81.5
68965;BME280;56017;48.680;8.998;2023-01-20T02:54:43;96130;;;0;81.5
68965;BME280;56017;48.680;8.998;2023-01-20T02:57:13;96130;;;0;81
68965;BME280;56017;48.680;8.998;2023-01-20T02:59:51;96140;;;0;81
68965;BME280;56017;48.680;8.998;2023-01-20T03:02:16;96130;;;0;81
68965;BME280;56017;48.680;8.998;2023-01-20T03:07:17;96140;;;-0.1;81.5
68965;BME280;56017;48.680;8.998;2023-01-20T03:09:54;96140;;;-0.2;82
68965;BME280;56017;48.680;8.998;2023-01-20T03:12:20;96140;;;-0.3;82.5
68965;BME280;56017;48.680;8.998;2023-01-20T03:14:50;96150;;;-0.2;82.5
68965;BME280;56017;48.680;8.998;2023-01-20T03:17:21;96150;;;0;82
68965;BME280;56017;48.680;8.998;2023-01-20T03:19:51;96150;;;0;81
68965;BME280;56017;48.680;8.998;2023-01-20T03:22:22;96150;;;-0.1;81.5
68965;BME280;56017;48.680;8.998;2023-01-20T03:24:53;96150;;;-0.1;81.5
68965;BME280;56017;48.680;8.998;2023-01-20T03:27:25;96160;;;0;81.5
68965;BME280;56017;48.680;8.998;2023-01-20T03:29:55;96160;;;0;81.5
68965;BME280;56017;48.680;8.998;2023-01-20T03:32:26;96160;;;0;82.5
68965;BME280;56017;48.680;8.998;2023-01-20T03:34:57;96170;;;0;82.5
68965;BME280;56017;48.680;8.998;2023-01-20T03:37:28;96170;;;-0.1;82.5
68965;BME280;56017;48.680;8.998;2023-01-20T03:39:59;96170;;;0;82.5
68965;BME280;56017;48.680;8.998;2023-01-20T03:42:32;96170;;;0;82.5
68965;BME280;56017;48.680;8.998;2023-01-20T03:45:13;96170;;;0.1;82.5
68965;BME280;56017;48.680;8.998;2023-01-20T03:47:50;96170;;;0.3;82
68965;BME280;56017;48.680;8.998;2023-01-20T03:50:22;96170;;;0.3;81.5
68965;BME280;56017;48.680;8.998;2023-01-20T03:52:37;96170;;;0.4;82
68965;BME280;56017;48.680;8.998;2023-01-20T03:55:09;96180;;;0.3;82.5
68965;BME280;56017;48.680;8.998;2023-01-20T03:57:37;96180;;;0.2;82
68965;BME280;56017;48.680;8.998;2023-01-20T04:00:08;96180;;;0;82.5
68965;BME280;56017;48.680;8.998;2023-01-20T04:02:38;96180;;;0;83
68965;BME280;56017;48.680;8.998;2023-01-20T04:05:09;96180;;;0.1;82.5
68965;BME280;56017;48.680;8.998;2023-01-20T04:07:40;96190;;;0.1;83
68965;BME280;56017;48.680;8.998;2023-01-20T04:10:12;96180;;;0.2;83
68965;BME280;56017;48.680;8.998;2023-01-20T04:12:42;96180;;;0.3;82.5
68965;BME280;56017;48.680;8.998;2023-01-20T04:15:13;96180;;;0.3;82.5
68965;BME280;56017;48.680;8.998;2023-01-20T04:17:44;96180;;;0.4;82
68965;BME280;56017;48.680;8.998;2023-01-20T04:20:15;96190;;;0.4;82
68965;BME280;56017;48.680;8.998;2023-01-20T04:22:49;96190;;;0.3;82
68965;BME280;56017;48.680;8.998;2023-01-20T04:25:24;96190;;;0.2;82
68965;BME280;56017;48.680;8.998;2023-01-20T04:27:48;96200;;;0.2;82.5
68965;BME280;56017;48.680;8.998;2023-01-20T04:30:19;96200;;;0.3;82
68965;BME280;56017;48.680;8.998;2023-01-20T04:32:50;96200;;;0.3;81.5
68965;BME280;56017;48.680;8.998;2023-01-20T04:35:22;96200;;;0.3;81
68965;BME280;56017;48.680;8.998;2023-01-20T04:37:52;96210;;;0.3;80.5
68965;BME280;56017;48.680;8.998;2023-01-20T04:40:23;96220;;;0.1;80.5
68965;BME280;56017;48.680;8.998;2023-01-20T04:43:00;96220;;;0;81
68965;BME280;56017;48.680;8.998;2023-01-20T04:45:25;96220;;;0;81.5
68965;BME280;56017;48.680;8.998;2023-01-20T04:47:55;96220;;;0;82
68965;BME280;56017;48.680;8.998;2023-01-20T04:50:36;96230;;;0.1;82
68965;BME280;56017;48.680;8.998;2023-01-20T04:52:57;96220;;;0.3;81.5
68965;BME280;56017;48.680;8.998;2023-01-20T04:55:30;96230;;;0.5;81
68965;BME280;56017;48.680;8.998;2023-01-20T04:57:59;96230;;;0.6;81
68965;BME280;56017;48.680;8.998;2023-01-20T05:00:37;96230;;;0.7;81.5
68965;BME280;56017;48.680;8.998;2023-01-20T05:03:01;96240;;;0.8;81
68965;BME280;56017;48.680;8.998;2023-01-20T05:05:33;96240;;;0.6;81.5
68965;BME280;56017;48.680;8.998;2023-01-20T05:08:03;96240;;;0.6;81
68965;BME280;56017;48.680;8.998;2023-01-20T05:10:34;96250;;;0.3;81
68965;BME280;56017;48.680;8.998;2023-01-20T05:13:05;96240;;;0.1;82
68965;BME280;56017;48.680;8.998;2023-01-20T05:15:37;96250;;;0;82
68965;BME280;56017;48.680;8.998;2023-01-20T05:18:07;96250;;;-0.1;82.5
68965;BME280;56017;48.680;8.998;2023-01-20T05:20:38;96250;;;-0.1;82.5
68965;BME280;56017;48.680;8.998;2023-01-20T05:23:09;96260;;;-0.1;82.5
68965;BME280;56017;48.680;8.998;2023-01-20T05:25:40;96250;;;-0.1;82.5
68965;BME280;56017;48.680;8.998;2023-01-20T05:28:11;96250;;;-0.1;82.5
68965;BME280;56017;48.680;8.998;2023-01-20T05:30:42;96250;;;-0.1;82.5
68965;BME280;56017;48.680;8.998;2023-01-20T05:33:13;96260;;;-0.1;82.5
68965;BME280;56017;48.680;8.998;2023-01-20T05:35:44;96270;;;-0.1;82.5
68965;BME280;56017;48.680;8.998;2023-01-20T05:38:15;96270;;;0;83
68965;BME280;56017;48.680;8.998;2023-01-20T05:40:57;96270;;;0.1;83
68965;BME280;56017;48.680;8.998;2023-01-20T05:43:17;96280;;;0.3;82.5
68965;BME280;56017;48.680;8.998;2023-01-20T05:45:55;96280;;;0.2;82.5
68965;BME280;56017;48.680;8.998;2023-01-20T05:48:19;96280;;;0.2;82.5
68965;BME280;56017;48.680;8.998;2023-01-20T05:50:50;96290;;;0.3;82.5
68965;BME280;56017;48.680;8.998;2023-01-20T05:53:21;96290;;;0.4;82
68965;BME280;56017;48.680;8.998;2023-01-20T05:56:00;96300;;;0.4;82
68965;BME280;56017;48.680;8.998;2023-01-20T05:58:23;96300;;;0.5;82
68965;BME280;56017;48.680;8.998;2023-01-20T06:01:02;96300;;;0.5;82
68965;BME280;56017;48.680;8.998;2023-01-20T06:03:25;96300;;;0.4;81.5
68965;BME280;56017;48.680;8.998;2023-01-20T06:06:00;96310;;;0.3;81.5
68965;BME280;56017;48.680;8.998;2023-01-20T06:08:27;96310;;;0.2;82
68965;BME280;56017;48.680;8.998;2023-01-20T06:10:58;96310;;;0.2;82
68965;BME280;56017;48.680;8.998;2023-01-20T06:13:29;96310;;;0.2;82
68965;BME280;56017;48.680;8.998;2023-01-20T06:16:00;96320;;;0.2;82
68965;BME280;56017;48.680;8.998;2023-01-20T06:18:32;96320;;;0.2;81.5
68965;BME280;56017;48.680;8.998;2023-01-20T06:21:08;96330;;;0.2;81
68965;BME280;56017;48.680;8.998;2023-01-20T06:23:33;96320;;;0.1;80.5
68965;BME280;56017;48.680;8.998;2023-01-20T06:26:06;96330;;;0;81
68965;BME280;56017;48.680;8.998;2023-01-20T06:28:35;96330;;;0;80.5
68965;BME280;56017;48.680;8.998;2023-01-20T06:31:07;96330;;;0;81
68965;BME280;56017;48.680;8.998;2023-01-20T06:33:37;96330;;;-0.2;81.5
68965;BME280;56017;48.680;8.998;2023-01-20T06:36:08;96330;;;-0.2;81.5
68965;BME280;56017;48.680;8.998;2023-01-20T06:38:39;96340;;;-0.3;82
68965;BME280;56017;48.680;8.998;2023-01-20T06:41:17;96340;;;-0.3;81.5
68965;BME280;56017;48.680;8.998;2023-01-20T06:43:41;96350;;;-0.4;81
68965;BME280;56017;48.680;8.998;2023-01-20T06:46:13;96350;;;-0.7;81.5
68965;BME280;56017;48.680;8.998;2023-01-20T06:48:43;96360;;;-0.9;81.5
68965;BME280;56017;48.680;8.998;2023-01-20T06:51:15;96360;;;-1;81.5
68965;BME280;56017;48.680;8.998;2023-01-20T06:53:45;96360;;;-1.2;82
68965;BME280;56017;48.680;8.998;2023-01-20T06:56:22;96360;;;-1.3;82.5
68965;BME280;56017;48.680;8.998;2023-01-20T06:58:46;96370;;;-1.2;82
68965;BME280;56017;48.680;8.998;2023-01-20T07:01:25;96370;;;-1.2;81.5
68965;BME280;56017;48.680;8.998;2023-01-20T07:03:48;96370;;;-1.3;81
68965;BME280;56017;48.680;8.998;2023-01-20T07:06:27;96380;;;-1.4;81.5
68965;BME280;56017;48.680;8.998;2023-01-20T07:08:50;96380;;;-1.4;81.5
68965;BME280;56017;48.680;8.998;2023-01-20T07:11:27;96380;;;-1.4;81
68965;BME280;56017;48.680;8.998;2023-01-20T07:13:52;96390;;;-1.6;81
68965;BME280;56017;48.680;8.998;2023-01-20T07:16:23;96390;;;-1.8;81.5
68965;BME280;56017;48.680;8.998;2023-01-20T07:18:54;96400;;;-1.9;82
68965;BME280;56017;48.680;8.998;2023-01-20T07:21:31;96400;;;-1.8;81.5
68965;BME280;56017;48.680;8.998;2023-01-20T07:23:58;96410;;;-1.7;81
68965;BME280;56017;48.680;8.998;2023-01-20T07:26:27;96410;;;-1.6;81
68965;BME280;56017;48.680;8.998;2023-01-20T07:28:58;96410;;;-1.7;81
68965;BME280;56017;48.680;8.998;2023-01-20T07:31:35;96420;;;-1.8;81.5
68965;BME280;56017;48.680;8.998;2023-01-20T07:34:00;96430;;;-1.8;81.5
68965;BME280;56017;48.680;8.998;2023-01-20T07:36:31;96430;;;-1.7;81.5
68965;BME280;56017;48.680;8.998;2023-01-20T07:39:02;96430;;;-1.6;81.5
68965;BME280;56017;48.680;8.998;2023-01-20T07:41:33;96440;;;-1.6;81.5
68965;BME280;56017;48.680;8.998;2023-01-20T07:44:04;96440;;;-1.5;82
68965;BME280;56017;48.680;8.998;2023-01-20T07:46:41;96440;;;-1.4;82
68965;BME280;56017;48.680;8.998;2023-01-20T07:49:06;96450;;;-1.2;81.5
68965;BME280;56017;48.680;8.998;2023-01-20T07:51:36;96450;;;-1.1;81.5
68965;BME280;56017;48.680;8.998;2023-01-20T07:54:09;96460;;;-1.1;81.5
68965;BME280;56017;48.680;8.998;2023-01-20T07:56:38;96450;;;-1.2;81.5
68965;BME280;56017;48.680;8.998;2023-01-20T07:59:09;96460;;;-1.2;82
68965;BME280;56017;48.680;8.998;2023-01-20T08:01:47;96460;;;-1.4;82
68965;BME280;56017;48.680;8.998;2023-01-20T08:04:11;96460;;;-1.5;82
68965;BME280;56017;48.680;8.998;2023-01-20T08:06:49;96460;;;-1.5;82.5
68965;BME280;56017;48.680;8.998;2023-01-20T08:09:13;96470;;;-1.3;83
68965;BME280;56017;48.680;8.998;2023-01-20T08:11:44;96480;;;-1;83
68965;BME280;56017;48.680;8.998;2023-01-20T08:14:15;96470;;;-0.8;82.5
68965;BME280;56017;48.680;8.998;2023-01-20T08:16:46;96470;;;-0.6;82.5
68965;BME280;56017;48.680;8.998;2023-01-20T08:19:17;96480;;;-0.4;82
68965;BME280;56017;48.680;8.998;2023-01-20T08:21:48;96490;;;-0.3;82
68965;BME280;56017;48.680;8.998;2023-01-20T08:24:19;96490;;;-0.1;82
68965;BME280;56017;48.680;8.998;2023-01-20T08:26:57;96490;;;0;82
68965;BME280;56017;48.680;8.998;2023-01-20T08:29:21;96490;;;0.3;81
68965;BME280;56017;48.680;8.998;2023-01-20T08:31:59;96490;;;0.4;80.5
68965;BME280;56017;48.680;8.998;2023-01-20T08:34:23;96490;;;0.4;81
68965;BME280;56017;48.680;8.998;2023-01-20T08:37:01;96500;;;0.3;81.5
68965;BME280;56017;48.680;8.998;2023-01-20T08:39:25;96500;;;0.4;81.5
68965;BME280;56017;48.680;8.998;2023-01-20T08:41:56;96510;;;0.6;81.5
68965;BME280;56017;48.680;8.998;2023-01-20T08:44:27;96510;;;0.7;81.5
68965;BME280;56017;48.680;8.998;2023-01-20T08:47:05;96510;;;0.9;81
68965;BME280;56017;48.680;8.998;2023-01-20T08:49:29;96510;;;0.9;81
68965;BME280;56017;48.680;8.998;2023-01-20T08:52:00;96510;;;1;81
68965;BME280;56017;48.680;8.998;2023-01-20T08:54:31;96520;;;1;80.5
68965;BME280;56017;48.680;8.998;2023-01-20T08:57:04;96520;;;1;80
68965;BME280;56017;48.680;8.998;2023-01-20T08:59:33;96520;;;1;80
68965;BME280;56017;48.680;8.998;2023-01-20T09:02:04;96520;;;0.9;80.5
68965;BME280;56017;48.680;8.998;2023-01-20T09:04:35;96520;;;0.9;80.5
68965;BME280;56017;48.680;8.998;2023-01-20T09:07:06;96530;;;0.8;80.5
68965;BME280;56017;48.680;8.998;2023-01-20T09:09:37;96530;;;0.7;80
68965;BME280;56017;48.680;8.998;2023-01-20T09:12:09;96540;;;0.6;80.5
68965;BME280;56017;48.680;8.998;2023-01-20T09:14:39;96540;;;0.4;81
68965;BME280;56017;48.680;8.998;2023-01-20T09:17:11;96540;;;0.4;81.5
68965;BME280;56017;48.680;8.998;2023-01-20T09:19:41;96540;;;0.4;81.5
68965;BME280;56017;48.680;8.998;2023-01-20T09:22:15;96550;;;0.5;81.5
68965;BME280;56017;48.680;8.998;2023-01-20T09:24:43;96540;;;0.4;81.5
68965;BME280;56017;48.680;8.998;2023-01-20T09:27:14;96540;;;0.4;81.5
68965;BME280;56017;48.680;8.998;2023-01-20T09:29:45;96550;;;0.5;81.5
68965;BME280;56017;48.680;8.998;2023-01-20T09:32:16;96560;;;0.7;81
68965;BME280;56017;48.680;8.998;2023-01-20T09:34:47;96560;;;0.9;81
68965;BME280;56017;48.680;8.998;2023-01-20T09:37:18;96550;;;1;80.5
68965;BME280;56017;48.680;8.998;2023-01-20T09:39:49;96560;;;1.1;81
68965;BME280;56017;48.680;8.998;2023-01-20T09:42:23;96560;;;1.3;81.5
68965;BME280;56017;48.680;8.998;2023-01-20T09:47:29;96560;;;1.5;81
68965;BME280;56017;48.680;8.998;2023-01-20T09:50:02;96570;;;1.6;81.5
68965;BME280;56017;48.680;8.998;2023-01-20T09:52:27;96560;;;2;81
68965;BME280;56017;48.680;8.998;2023-01-20T09:54:55;96560;;;2.2;80.5
68965;BME280;56017;48.680;8.998;2023-01-20T09:57:28;96560;;;2.5;80.5
68965;BME280;56017;48.680;8.998;2023-01-20T10:02:35;96570;;;2.7;81
68965;BME280;56017;48.680;8.998;2023-01-20T10:04:59;96560;;;2.6;81
68965;BME280;56017;48.680;8.998;2023-01-20T10:07:52;96570;;;2.4;81
68965;BME280;56017;48.680;8.998;2023-01-20T10:10:06;96570;;;2.4;82
68965;BME280;56017;48.680;8.998;2023-01-20T10:12:32;96570;;;2.4;81.5
68965;BME280;56017;48.680;8.998;2023-01-20T10:15:06;96580;;;2.3;82
68965;BME280;56017;48.680;8.998;2023-01-20T10:17:43;96580;;;2.4;82
68965;BME280;56017;48.680;8.998;2023-01-20T10:20:08;96580;;;2.7;82.5
68965;BME280;56017;48.680;8.998;2023-01-20T10:22:39;96580;;;2.9;82
68965;BME280;56017;48.680;8.998;2023-01-20T10:25:08;96580;;;3.1;82
68965;BME280;56017;48.680;8.998;2023-01-20T10:27:39;96580;;;3.5;81.5
68965;BME280;56017;48.680;8.998;2023-01-20T10:30:09;96580;;;4.1;81
68965;BME280;56017;48.680;8.998;2023-01-20T10:32:47;96570;;;4.2;80.5
68965;BME280;56017;48.680;8.998;2023-01-20T10:35:15;96570;;;4.3;81
68965;BME280;56017;48.680;8.998;2023-01-20T10:37:42;96570;;;4.5;80.5
68965;BME280;56017;48.680;8.998;2023-01-20T10:40:14;96570;;;4.3;80
68965;BME280;56017;48.680;8.998;2023-01-20T10:42:49;96570;;;4.1;80.5
68965;BME280;56017;48.680;8.998;2023-01-20T10:45:17;96570;;;3.6;81
68965;BME280;56017;48.680;8.998;2023-01-20T10:47:57;96570;;;3.3;81
68965;BME280;56017;48.680;8.998;2023-01-20T10:50:18;96580;;;3.1;81
68965;BME280;56017;48.680;8.998;2023-01-20T10:53:13;96570;;;3;82
68965;BME280;56017;48.680;8.998;2023-01-20T10:55:26;96580;;;3.1;81.5
68965;BME280;56017;48.680;8.998;2023-01-20T11:00:21;96580;;;2.9;82
68965;BME280;56017;48.680;8.998;2023-01-20T11:02:52;96580;;;3;82.5
68965;BME280;56017;48.680;8.998;2023-01-20T11:05:24;96580;;;3.3;82
68965;BME280;56017;48.680;8.998;2023-01-20T11:08:00;96580;;;3.9;81
68965;BME280;56017;48.680;8.998;2023-01-20T11:10:25;96580;;;4;80.5
68965;BME280;56017;48.680;8.998;2023-01-20T11:12:56;96580;;;4;81
68965;BME280;56017;48.680;8.998;2023-01-20T11:15:30;96590;;;4.1;81.5
68965;BME280;56017;48.680;8.998;2023-01-20T11:18:20;96580;;;4.2;81.5
68965;BME280;56017;48.680;8.998;2023-01-20T11:20:28;96580;;;4.4;81
68965;BME280;56017;48.680;8.998;2023-01-20T11:23:31;96580;;;5;81
68965;BME280;56017;48.680;8.998;2023-01-20T11:28:01;96590;;;5;81
68965;BME280;56017;48.680;8.998;2023-01-20T11:30:32;96590;;;5.3;80
68965;BME280;56017;48.680;8.998;2023-01-20T11:35:34;96590;;;5.6;80
68965;BME280;56017;48.680;8.998;2023-01-20T11:39:22;96590;;;5.8;80.5
68965;BME280;56017;48.680;8.998;2023-01-20T11:40:36;96590;;;6;80.5
68965;BME280;56017;48.680;8.998;2023-01-20T11:43:08;96590;;;5.6;81
68965;BME280;56017;48.680;8.998;2023-01-20T11:45:38;96590;;;5.7;81
68965;BME280;56017;48.680;8.998;2023-01-20T11:48:16;96590;;;5.9;80.5
68965;BME280;56017;48.680;8.998;2023-01-20T11:50:41;96590;;;5.8;80.5
68965;BME280;56017;48.680;8.998;2023-01-20T11:53:19;96600;;;5.2;81.5
68965;BME280;56017;48.680;8.998;2023-01-20T11:55:44;96590;;;4.9;83
68965;BME280;56017;48.680;8.998;2023-01-20T11:58:20;96590;;;5.2;83
68965;BME280;56017;48.680;8.998;2023-01-20T12:00:44;96590;;;5.5;82
68965;BME280;56017;48.680;8.998;2023-01-20T12:03:18;96590;;;5.6;82
68965;BME280;56017;48.680;8.998;2023-01-20T12:08:26;96590;;;7.5;79.5
68965;BME280;56017;48.680;8.998;2023-01-20T12:10:47;96590;;;7.7;78
68965;BME280;56017;48.680;8.998;2023-01-20T12:13:26;96590;;;7.3;78.5
68965;BME280;56017;48.680;8.998;2023-01-20T12:15:50;96590;;;6.6;80
68965;BME280;56017;48.680;8.998;2023-01-20T12:18:32;96590;;;6.8;80
68965;BME280;56017;48.680;8.998;2023-01-20T12:23:31;96600;;;6.2;79.5
68965;BME280;56017;48.680;8.998;2023-01-20T12:28:27;96610;;;5.2;80.5
68965;BME280;56017;48.680;8.998;2023-01-20T12:31:03;96610;;;5.5;80.5
68965;BME280;56017;48.680;8.998;2023-01-20T12:33:29;96600;;;8.4;76.5
68965;BME280;56017;48.680;8.998;2023-01-20T12:36:04;96600;;;10.3;72.5
68965;BME280;56017;48.680;8.998;2023-01-20T12:38:32;96600;;;10.5;71.5
68965;BME280;56017;48.680;8.998;2023-01-20T12:54:11;96610;;;10.3;78
68965;BME280;56017;48.680;8.998;2023-01-20T13:03:46;96620;;;6.7;79.5
68965;BME280;56017;48.680;8.998;2023-01-20T13:06:15;96620;;;5.6;82.5
68965;BME280;56017;48.680;8.998;2023-01-20T13:08:46;96620;;;5.3;84.5
68965;BME280;56017;48.680;8.998;2023-01-20T13:11:15;96620;;;5.4;84
68965;BME280;56017;48.680;8.998;2023-01-20T13:13:56;96620;;;5.3;82
68965;BME280;56017;48.680;8.998;2023-01-20T13:16:16;96620;;;5;82
68965;BME280;56017;48.680;8.998;2023-01-20T13:19:01;96620;;;4.8;81.5
68965;BME280;56017;48.680;8.998;2023-01-20T13:21:16;96620;;;4.5;82
68965;BME280;56017;48.680;8.998;2023-01-20T13:23:47;96620;;;4.4;83
68965;BME280;56017;48.680;8.998;2023-01-20T13:26:18;96620;;;4.6;83
68965;BME280;56017;48.680;8.998;2023-01-20T13:33:50;96610;;;7.1;81
68965;BME280;56017;48.680;8.998;2023-01-20T13:39:55;96620;;;9.5;79.5
68965;BME280;56017;48.680;8.998;2023-01-20T13:41:55;96620;;;8.7;77
68965;BME280;56017;48.680;8.998;2023-01-20T13:43:54;96630;;;6.8;79.5
68965;BME280;56017;48.680;8.998;2023-01-20T13:49:12;96630;;;5.7;83.5
68965;BME280;56017;48.680;8.998;2023-01-20T13:54:35;96630;;;9;79
68965;BME280;56017;48.680;8.998;2023-01-20T13:56:39;96630;;;7.9;78.5
68965;BME280;56017;48.680;8.998;2023-01-20T14:04:02;96650;;;5.4;81.5
68965;BME280;56017;48.680;8.998;2023-01-20T14:09:08;96650;;;4.8;83
68965;BME280;56017;48.680;8.998;2023-01-20T14:11:35;96650;;;4.6;83
68965;BME280;56017;48.680;8.998;2023-01-20T14:14:15;96650;;;4.4;83.5
68965;BME280;56017;48.680;8.998;2023-01-20T14:16:37;96650;;;4.1;83
68965;BME280;56017;48.680;8.998;2023-01-20T14:19:39;96650;;;3.9;84
68965;BME280;56017;48.680;8.998;2023-01-20T14:21:39;96650;;;3.9;83.5
68965;BME280;56017;48.680;8.998;2023-01-20T14:24:25;96650;;;3.8;83.5
68965;BME280;56017;48.680;8.998;2023-01-20T14:29:14;96660;;;3.8;84
68965;BME280;56017;48.680;8.998;2023-01-20T14:34:23;96660;;;3.6;83.5
68965;BME280;56017;48.680;8.998;2023-01-20T14:36:45;96670;;;3.5;83.5
68965;BME280;56017;48.680;8.998;2023-01-20T14:39:18;96670;;;3.3;83
68965;BME280;56017;48.680;8.998;2023-01-20T14:44:25;96680;;;2.8;83
68965;BME280;56017;48.680;8.998;2023-01-20T14:46:50;96680;;;2.6;83.5
68965;BME280;56017;48.680;8.998;2023-01-20T14:49:20;96680;;;2.5;83.5
68965;BME280;56017;48.680;8.998;2023-01-20T14:54:29;96690;;;2.4;84
68965;BME280;56017;48.680;8.998;2023-01-20T14:59:23;96690;;;2.5;83.5
68965;BME280;56017;48.680;8.998;2023-01-20T15:02:01;96700;;;2.5;83
68965;BME280;56017;48.680;8.998;2023-01-20T15:04:25;96700;;;2.4;83
68965;BME280;56017;48.680;8.998;2023-01-20T15:06:58;96700;;;2.4;83.5
68965;BME280;56017;48.680;8.998;2023-01-20T15:09:29;96700;;;2.5;83
68965;BME280;56017;48.680;8.998;2023-01-20T15:13:02;96700;;;2.5;82.5
68965;BME280;56017;48.680;8.998;2023-01-20T15:22:18;96700;;;2.4;82.5
68965;BME280;56017;48.680;8.998;2023-01-20T15:24:33;96700;;;2.4;82.5
68965;BME280;56017;48.680;8.998;2023-01-20T15:29:35;96700;;;2.3;82.5
68965;BME280;56017;48.680;8.998;2023-01-20T15:34:37;96700;;;2.2;82.5
68965;BME280;56017;48.680;8.998;2023-01-20T15:37:17;96710;;;2.2;82.5
68965;BME280;56017;48.680;8.998;2023-01-20T15:39:39;96710;;;2.1;82.5
68965;BME280;56017;48.680;8.998;2023-01-20T15:42:10;96710;;;2;82
68965;BME280;56017;48.680;8.998;2023-01-20T15:44:41;96710;;;1.9;82
68965;BME280;56017;48.680;8.998;2023-01-20T15:49:43;96710;;;1.7;82
68965;BME280;56017;48.680;8.998;2023-01-20T15:54:45;96720;;;1.5;81.5
68965;BME280;56017;48.680;8.998;2023-01-20T15:57:16;96710;;;1.4;81.5
68965;BME280;56017;48.680;8.998;2023-01-20T15:59:47;96720;;;1.4;81
68965;BME280;56017;48.680;8.998;2023-01-20T16:02:19;96720;;;1.2;81
68965;BME280;56017;48.680;8.998;2023-01-20T16:04:49;96720;;;1.1;81
68965;BME280;56017;48.680;8.998;2023-01-20T16:09:51;96730;;;0.8;81.5
68965;BME280;56017;48.680;8.998;2023-01-20T16:14:53;96730;;;0.7;81
68965;BME280;56017;48.680;8.998;2023-01-20T16:19:55;96740;;;0.6;80.5
68965;BME280;56017;48.680;8.998;2023-01-20T16:22:26;96740;;;0.5;80.5
68965;BME280;56017;48.680;8.998;2023-01-20T16:24:57;96740;;;0.4;80.5
68965;BME280;56017;48.680;8.998;2023-01-20T16:27:34;96740;;;0.3;80.5
68965;BME280;56017;48.680;8.998;2023-01-20T16:29:59;96740;;;0.2;80.5